sensor_id;sensor_type;location;lat;lon;timestamp;pressure;altitude;pressure_sealevel;temperature;humidity
36190;BME280;22232;50.914;13.858;2022-10-10T00:01:13;98243.34;;;8.28;100.00
36190;BME280;22232;50.914;13.858;2022-10-10T00:03:41;98241.09;;;8.25;100.00
36190;BME280;22232;50.914;13.858;2022-10-10T00:06:09;98241.31;;;8.37;100.00
36190;BME280;22232;50.914;13.858;2022-10-10T00:08:38;98240.28;;;8.25;100.00
36190;BME280;22232;50.914;13.858;2022-10-10T00:11:05;98237.41;;;8.33;100.00
36190;BME280;22232;50.914;13.858;2022-10-10T00:13:33;98228.63;;;8.39;100.00
36190;BME280;22232;50.914;13.858;2022-10-10T00:16:01;98238.84;;;8.29;100.00
36190;BME280;22232;50.914;13.858;2022-10-10T00:18:30;98225.53;;;8.36;100.00
36190;BME280;22232;50.914;13.858;2022-10-10T00:20:58;98226.34;;;8.36;100.00
36190;BME280;22232;50.914;13.858;2022-10-10T00:23:25;98229.44;;;8.40;100.00
36190;BME280;22232;50.914;13.858;2022-10-10T00:25:53;98222.31;;;8.40;100.00
36190;BME280;22232;50.914;13.858;2022-10-10T00:28:21;98217.00;;;8.40;100.00
36190;BME280;22232;50.914;13.858;2022-10-10T00:30:49;98216.75;;;8.35;100.00
36190;BME280;22232;50.914;13.858;2022-10-10T00:33:17;98214.50;;;8.32;100.00
36190;BME280;22232;50.914;13.858;2022-10-10T00:35:44;98217.56;;;8.36;100.00
36190;BME280;22232;50.914;13.858;2022-10-10T00:38:13;98209.81;;;8.34;100.00
36190;BME280;22232;50.914;13.858;2022-10-10T00:40:50;98208.16;;;8.33;100.00
36190;BME280;22232;50.914;13.858;2022-10-10T00:43:18;98211.06;;;8.25;100.00
36190;BME280;22232;50.914;13.858;2022-10-10T00:45:46;98211.22;;;8.30;100.00
36190;BME280;22232;50.914;13.858;2022-10-10T00:48:15;98211.03;;;8.32;100.00
36190;BME280;22232;50.914;13.858;2022-10-10T00:51:10;98201.44;;;8.44;100.00
36190;BME280;22232;50.914;13.858;2022-10-10T00:53:40;98202.88;;;8.40;100.00
36190;BME280;22232;50.914;13.858;2022-10-10T00:56:10;98198.38;;;8.40;100.00
36190;BME280;22232;50.914;13.858;2022-10-10T00:58:43;98201.63;;;8.36;100.00
36190;BME280;22232;50.914;13.858;2022-10-10T01:01:12;98194.47;;;8.36;100.00
36190;BME280;22232;50.914;13.858;2022-10-10T01:03:40;98193.25;;;8.39;100.00
36190;BME280;22232;50.914;13.858;2022-10-10T01:06:08;98194.69;;;8.35;100.00
36190;BME280;22232;50.914;13.858;2022-10-10T01:08:36;98174.66;;;8.39;100.00
36190;BME280;22232;50.914;13.858;2022-10-10T01:11:23;98177.91;;;8.27;100.00
36190;BME280;22232;50.914;13.858;2022-10-10T01:14:03;98177.31;;;8.25;100.00
36190;BME280;22232;50.914;13.858;2022-10-10T01:16:40;98172.38;;;8.36;100.00
36190;BME280;22232;50.914;13.858;2022-10-10T01:24:48;98165.25;;;8.23;100.00
36190;BME280;22232;50.914;13.858;2022-10-10T01:27:23;98173.25;;;8.10;100.00
36190;BME280;22232;50.914;13.858;2022-10-10T01:30:08;98169.97;;;8.08;100.00
36190;BME280;22232;50.914;13.858;2022-10-10T01:32:42;98170.59;;;8.10;100.00
36190;BME280;22232;50.914;13.858;2022-10-10T01:39:06;98171.00;;;8.13;100.00
36190;BME280;22232;50.914;13.858;2022-10-10T01:41:09;98166.72;;;7.99;100.00
36190;BME280;22232;50.914;13.858;2022-10-10T01:43:40;98168.56;;;7.98;100.00
36190;BME280;22232;50.914;13.858;2022-10-10T01:46:16;98175.31;;;7.94;100.00
36190;BME280;22232;50.914;13.858;2022-10-10T01:48:47;98182.03;;;7.90;100.00
36190;BME280;22232;50.914;13.858;2022-10-10T01:57:05;98165.91;;;7.85;100.00
36190;BME280;22232;50.914;13.858;2022-10-10T02:02:38;98171.00;;;7.80;100.00
36190;BME280;22232;50.914;13.858;2022-10-10T02:08:03;98166.28;;;7.82;100.00
36190;BME280;22232;50.914;13.858;2022-10-10T02:10:55;98161.19;;;7.74;100.00
36190;BME280;22232;50.914;13.858;2022-10-10T02:13:29;98151.00;;;7.64;100.00
36190;BME280;22232;50.914;13.858;2022-10-10T02:16:00;98152.22;;;7.62;100.00
36190;BME280;22232;50.914;13.858;2022-10-10T02:18:31;98149.16;;;7.58;100.00
36190;BME280;22232;50.914;13.858;2022-10-10T02:21:03;98149.16;;;7.58;100.00
36190;BME280;22232;50.914;13.858;2022-10-10T02:23:32;98145.66;;;7.57;100.00
36190;BME280;22232;50.914;13.858;2022-10-10T02:26:01;98139.94;;;7.54;100.00
36190;BME280;22232;50.914;13.858;2022-10-10T02:28:38;98138.72;;;7.43;100.00
36190;BME280;22232;50.914;13.858;2022-10-10T02:31:10;98131.97;;;7.34;100.00
36190;BME280;22232;50.914;13.858;2022-10-10T02:33:49;98122.97;;;7.42;100.00
36190;BME280;22232;50.914;13.858;2022-10-10T02:36:20;98120.53;;;7.47;100.00
36190;BME280;22232;50.914;13.858;2022-10-10T02:38:51;98120.72;;;7.39;100.00
36190;BME280;22232;50.914;13.858;2022-10-10T02:41:20;98123.59;;;7.30;100.00
36190;BME280;22232;50.914;13.858;2022-10-10T02:43:50;98111.72;;;7.33;100.00
36190;BME280;22232;50.914;13.858;2022-10-10T02:46:18;98113.59;;;7.59;100.00
36190;BME280;22232;50.914;13.858;2022-10-10T02:48:46;98108.69;;;7.63;100.00
36190;BME280;22232;50.914;13.858;2022-10-10T02:51:14;98105.25;;;7.49;100.00
36190;BME280;22232;50.914;13.858;2022-10-10T02:53:42;98100.34;;;7.52;100.00
36190;BME280;22232;50.914;13.858;2022-10-10T02:56:10;98087.25;;;7.57;100.00
36190;BME280;22232;50.914;13.858;2022-10-10T02:58:38;98090.53;;;7.53;100.00
36190;BME280;22232;50.914;13.858;2022-10-10T03:01:05;98082.38;;;7.61;100.00
36190;BME280;22232;50.914;13.858;2022-10-10T03:03:33;98080.94;;;7.58;100.00
36190;BME280;22232;50.914;13.858;2022-10-10T03:06:01;98070.31;;;7.58;100.00
36190;BME280;22232;50.914;13.858;2022-10-10T03:08:29;98063.59;;;7.56;100.00
36190;BME280;22232;50.914;13.858;2022-10-10T03:10:59;98059.47;;;7.60;100.00
36190;BME280;22232;50.914;13.858;2022-10-10T03:13:27;98054.16;;;7.67;100.00
36190;BME280;22232;50.914;13.858;2022-10-10T03:15:55;98058.66;;;7.66;100.00
36190;BME280;22232;50.914;13.858;2022-10-10T03:18:23;98049.88;;;7.66;100.00
36190;BME280;22232;50.914;13.858;2022-10-10T03:20:53;98047.63;;;7.76;100.00
36190;BME280;22232;50.914;13.858;2022-10-10T03:23:24;98038.66;;;7.70;100.00
36190;BME280;22232;50.914;13.858;2022-10-10T03:25:52;98035.78;;;7.72;100.00
36190;BME280;22232;50.914;13.858;2022-10-10T03:28:20;98027.22;;;7.70;100.00
36190;BME280;22232;50.914;13.858;2022-10-10T03:30:48;98035.78;;;7.78;100.00
36190;BME280;22232;50.914;13.858;2022-10-10T03:33:16;98032.31;;;7.78;100.00
36190;BME280;22232;50.914;13.858;2022-10-10T03:35:43;98031.50;;;7.71;100.00
36190;BME280;22232;50.914;13.858;2022-10-10T03:38:12;98023.34;;;7.66;100.00
36190;BME280;22232;50.914;13.858;2022-10-10T03:40:41;98022.91;;;7.75;100.00
36190;BME280;22232;50.914;13.858;2022-10-10T03:43:10;98016.00;;;7.68;100.00
36190;BME280;22232;50.914;13.858;2022-10-10T03:45:41;98018.81;;;7.73;100.00
36190;BME280;22232;50.914;13.858;2022-10-10T03:48:10;98001.09;;;7.73;100.00
36190;BME280;22232;50.914;13.858;2022-10-10T03:50:38;97998.19;;;7.81;100.00
36190;BME280;22232;50.914;13.858;2022-10-10T03:53:05;98002.72;;;7.74;100.00
36190;BME280;22232;50.914;13.858;2022-10-10T03:55:33;98009.22;;;7.85;100.00
36190;BME280;22232;50.914;13.858;2022-10-10T03:58:00;97998.16;;;7.95;100.00
36190;BME280;22232;50.914;13.858;2022-10-10T04:00:28;97994.06;;;7.99;100.00
36190;BME280;22232;50.914;13.858;2022-10-10T04:02:56;97999.81;;;7.89;100.00
36190;BME280;22232;50.914;13.858;2022-10-10T04:05:23;97993.09;;;7.80;100.00
36190;BME280;22232;50.914;13.858;2022-10-10T04:07:51;97988.41;;;7.75;100.00
36190;BME280;22232;50.914;13.858;2022-10-10T04:10:18;97982.06;;;7.70;100.00
36190;BME280;22232;50.914;13.858;2022-10-10T04:12:46;97982.25;;;7.81;100.00
36190;BME280;22232;50.914;13.858;2022-10-10T04:15:14;97971.63;;;7.81;100.00
36190;BME280;22232;50.914;13.858;2022-10-10T04:17:42;97976.53;;;7.85;100.00
36190;BME280;22232;50.914;13.858;2022-10-10T04:20:09;97971.63;;;7.88;100.00
36190;BME280;22232;50.914;13.858;2022-10-10T04:22:37;97967.50;;;7.99;100.00
36190;BME280;22232;50.914;13.858;2022-10-10T04:25:05;97966.03;;;8.03;100.00
36190;BME280;22232;50.914;13.858;2022-10-10T04:27:32;97964.22;;;8.03;100.00
36190;BME280;22232;50.914;13.858;2022-10-10T04:30:00;97969.06;;;8.20;100.00
36190;BME280;22232;50.914;13.858;2022-10-10T04:32:28;97975.41;;;8.19;100.00
36190;BME280;22232;50.914;13.858;2022-10-10T04:34:56;97967.00;;;8.22;100.00
36190;BME280;22232;50.914;13.858;2022-10-10T04:37:23;97976.38;;;8.31;100.00
36190;BME280;22232;50.914;13.858;2022-10-10T04:39:51;97969.66;;;8.15;100.00
36190;BME280;22232;50.914;13.858;2022-10-10T04:42:18;97966.28;;;8.01;100.00
36190;BME280;22232;50.914;13.858;2022-10-10T04:44:46;97967.09;;;8.02;100.00
36190;BME280;22232;50.914;13.858;2022-10-10T04:47:14;97963.00;;;7.99;100.00
36190;BME280;22232;50.914;13.858;2022-10-10T04:49:41;97961.44;;;7.85;100.00
36190;BME280;22232;50.914;13.858;2022-10-10T04:52:09;97972.06;;;7.85;100.00
36190;BME280;22232;50.914;13.858;2022-10-10T04:54:37;97965.06;;;7.91;100.00
36190;BME280;22232;50.914;13.858;2022-10-10T04:57:04;97961.81;;;7.95;100.00
36190;BME280;22232;50.914;13.858;2022-10-10T04:59:32;97954.88;;;7.88;100.00
36190;BME280;22232;50.914;13.858;2022-10-10T05:02:00;97957.13;;;7.84;100.00
36190;BME280;22232;50.914;13.858;2022-10-10T05:04:28;97958.34;;;7.88;100.00
36190;BME280;22232;50.914;13.858;2022-10-10T05:06:55;97955.09;;;7.86;100.00
36190;BME280;22232;50.914;13.858;2022-10-10T05:09:23;97959.59;;;7.86;100.00
36190;BME280;22232;50.914;13.858;2022-10-10T05:11:51;97959.75;;;7.97;100.00
36190;BME280;22232;50.914;13.858;2022-10-10T05:14:19;97951.94;;;8.02;100.00
36190;BME280;22232;50.914;13.858;2022-10-10T05:16:46;97953.97;;;8.14;100.00
36190;BME280;22232;50.914;13.858;2022-10-10T05:19:14;97958.63;;;8.25;100.00
36190;BME280;22232;50.914;13.858;2022-10-10T05:21:41;97954.13;;;8.25;100.00
36190;BME280;22232;50.914;13.858;2022-10-10T05:24:09;97944.91;;;8.28;100.00
36190;BME280;22232;50.914;13.858;2022-10-10T05:26:36;97951.59;;;8.37;100.00
36190;BME280;22232;50.914;13.858;2022-10-10T05:29:09;97942.34;;;8.53;100.00
36190;BME280;22232;50.914;13.858;2022-10-10T05:31:36;97944.31;;;8.64;100.00
36190;BME280;22232;50.914;13.858;2022-10-10T05:34:04;97935.38;;;8.84;100.00
36190;BME280;22232;50.914;13.858;2022-10-10T05:36:32;97933.06;;;9.19;100.00
36190;BME280;22232;50.914;13.858;2022-10-10T05:38:59;97937.72;;;9.42;100.00
36190;BME280;22232;50.914;13.858;2022-10-10T05:41:28;97939.88;;;9.52;100.00
36190;BME280;22232;50.914;13.858;2022-10-10T05:43:56;97937.22;;;9.70;100.00
36190;BME280;22232;50.914;13.858;2022-10-10T05:46:23;97928.66;;;9.86;100.00
36190;BME280;22232;50.914;13.858;2022-10-10T05:48:53;97914.91;;;9.71;100.00
36190;BME280;22232;50.914;13.858;2022-10-10T05:51:20;97926.72;;;9.94;100.00
36190;BME280;22232;50.914;13.858;2022-10-10T05:53:48;97918.09;;;10.10;100.00
36190;BME280;22232;50.914;13.858;2022-10-10T05:56:15;97919.53;;;10.13;100.00
36190;BME280;22232;50.914;13.858;2022-10-10T05:58:44;97924.28;;;10.10;100.00
36190;BME280;22232;50.914;13.858;2022-10-10T06:01:11;97917.25;;;9.98;100.00
36190;BME280;22232;50.914;13.858;2022-10-10T06:03:39;97916.44;;;9.97;100.00
36190;BME280;22232;50.914;13.858;2022-10-10T06:06:06;97919.56;;;9.76;100.00
36190;BME280;22232;50.914;13.858;2022-10-10T06:08:35;97910.69;;;9.63;100.00
36190;BME280;22232;50.914;13.858;2022-10-10T06:11:05;97914.38;;;9.62;100.00
36190;BME280;22232;50.914;13.858;2022-10-10T06:13:34;97908.91;;;9.76;100.00
36190;BME280;22232;50.914;13.858;2022-10-10T06:16:02;97914.44;;;10.11;100.00
36190;BME280;22232;50.914;13.858;2022-10-10T06:18:29;97903.56;;;10.43;100.00
36190;BME280;22232;50.914;13.858;2022-10-10T06:21:01;97918.16;;;10.82;100.00
36190;BME280;22232;50.914;13.858;2022-10-10T06:23:29;97908.28;;;11.77;100.00
36190;BME280;22232;50.914;13.858;2022-10-10T06:25:57;97906.66;;;11.76;100.00
36190;BME280;22232;50.914;13.858;2022-10-10T06:28:25;97911.91;;;11.59;100.00
36190;BME280;22232;50.914;13.858;2022-10-10T06:30:52;97908.41;;;11.70;100.00
36190;BME280;22232;50.914;13.858;2022-10-10T06:33:20;97911.81;;;11.42;100.00
36190;BME280;22232;50.914;13.858;2022-10-10T06:35:48;97912.97;;;11.46;100.00
36190;BME280;22232;50.914;13.858;2022-10-10T06:38:15;97916.81;;;11.38;100.00
36190;BME280;22232;50.914;13.858;2022-10-10T06:40:44;97925.50;;;11.57;100.00
36190;BME280;22232;50.914;13.858;2022-10-10T06:43:13;97916.78;;;11.85;100.00
36190;BME280;22232;50.914;13.858;2022-10-10T06:45:44;97908.78;;;12.14;100.00
36190;BME280;22232;50.914;13.858;2022-10-10T06:48:14;97917.69;;;11.91;100.00
36190;BME280;22232;50.914;13.858;2022-10-10T06:50:42;97930.13;;;11.74;100.00
36190;BME280;22232;50.914;13.858;2022-10-10T06:53:09;97927.84;;;11.54;100.00
36190;BME280;22232;50.914;13.858;2022-10-10T06:55:37;97934.81;;;11.55;100.00
36190;BME280;22232;50.914;13.858;2022-10-10T06:58:04;97921.91;;;11.16;100.00
36190;BME280;22232;50.914;13.858;2022-10-10T07:00:32;97935.25;;;11.16;100.00
36190;BME280;22232;50.914;13.858;2022-10-10T07:02:59;97937.81;;;11.35;100.00
36190;BME280;22232;50.914;13.858;2022-10-10T07:05:27;97946.19;;;11.27;100.00
36190;BME280;22232;50.914;13.858;2022-10-10T07:07:55;97939.88;;;11.56;100.00
36190;BME280;22232;50.914;13.858;2022-10-10T07:10:22;97947.69;;;11.58;100.00
36190;BME280;22232;50.914;13.858;2022-10-10T07:12:50;97952.78;;;11.71;100.00
36190;BME280;22232;50.914;13.858;2022-10-10T07:15:18;97946.75;;;11.87;100.00
36190;BME280;22232;50.914;13.858;2022-10-10T07:17:46;97939.28;;;11.89;100.00
36190;BME280;22232;50.914;13.858;2022-10-10T07:20:20;97949.16;;;11.77;100.00
36190;BME280;22232;50.914;13.858;2022-10-10T07:22:47;97952.91;;;11.64;100.00
36190;BME280;22232;50.914;13.858;2022-10-10T07:25:16;97944.19;;;11.69;100.00
36190;BME280;22232;50.914;13.858;2022-10-10T07:27:43;97953.38;;;11.61;100.00
36190;BME280;22232;50.914;13.858;2022-10-10T07:30:11;97946.97;;;11.62;100.00
36190;BME280;22232;50.914;13.858;2022-10-10T07:32:39;97950.81;;;11.78;100.00
36190;BME280;22232;50.914;13.858;2022-10-10T07:35:07;97952.44;;;11.91;100.00
36190;BME280;22232;50.914;13.858;2022-10-10T07:37:34;97959.50;;;11.74;100.00
36190;BME280;22232;50.914;13.858;2022-10-10T07:40:02;97953.59;;;11.71;100.00
36190;BME280;22232;50.914;13.858;2022-10-10T07:42:30;97962.91;;;11.81;100.00
36190;BME280;22232;50.914;13.858;2022-10-10T07:44:57;97963.00;;;11.62;100.00
36190;BME280;22232;50.914;13.858;2022-10-10T07:47:25;97962.66;;;11.70;100.00
36190;BME280;22232;50.914;13.858;2022-10-10T07:49:52;97963.13;;;11.67;100.00
36190;BME280;22232;50.914;13.858;2022-10-10T07:52:20;97972.31;;;11.60;100.00
36190;BME280;22232;50.914;13.858;2022-10-10T07:54:47;97964.19;;;11.66;100.00
36190;BME280;22232;50.914;13.858;2022-10-10T07:57:15;97970.22;;;11.62;100.00
36190;BME280;22232;50.914;13.858;2022-10-10T07:59:42;97974.63;;;11.56;100.00
36190;BME280;22232;50.914;13.858;2022-10-10T08:02:11;97971.59;;;11.76;100.00
36190;BME280;22232;50.914;13.858;2022-10-10T08:04:39;97971.81;;;11.98;100.00
36190;BME280;22232;50.914;13.858;2022-10-10T08:07:07;97965.66;;;12.09;100.00
36190;BME280;22232;50.914;13.858;2022-10-10T08:09:34;97963.41;;;12.18;100.00
36190;BME280;22232;50.914;13.858;2022-10-10T08:12:02;97966.75;;;12.25;100.00
36190;BME280;22232;50.914;13.858;2022-10-10T08:14:30;97967.59;;;12.54;100.00
36190;BME280;22232;50.914;13.858;2022-10-10T08:16:58;97957.13;;;12.81;100.00
36190;BME280;22232;50.914;13.858;2022-10-10T08:19:26;97958.66;;;12.94;99.25
36190;BME280;22232;50.914;13.858;2022-10-10T08:21:54;97957.69;;;13.00;98.91
36190;BME280;22232;50.914;13.858;2022-10-10T08:24:21;97955.56;;;13.02;97.53
36190;BME280;22232;50.914;13.858;2022-10-10T08:26:49;97954.44;;;12.98;95.71
36190;BME280;22232;50.914;13.858;2022-10-10T08:29:17;97957.75;;;13.05;97.38
36190;BME280;22232;50.914;13.858;2022-10-10T08:31:45;97962.91;;;13.24;95.92
36190;BME280;22232;50.914;13.858;2022-10-10T08:34:12;97948.13;;;13.38;95.86
36190;BME280;22232;50.914;13.858;2022-10-10T08:36:40;97956.63;;;13.69;89.71
36190;BME280;22232;50.914;13.858;2022-10-10T08:39:07;97948.16;;;13.99;90.94
36190;BME280;22232;50.914;13.858;2022-10-10T08:41:57;97955.28;;;14.10;89.17
36190;BME280;22232;50.914;13.858;2022-10-10T08:44:31;97951.25;;;14.52;87.00
36190;BME280;22232;50.914;13.858;2022-10-10T08:47:15;97946.72;;;14.57;84.21
36190;BME280;22232;50.914;13.858;2022-10-10T08:49:53;97942.56;;;14.22;79.91
36190;BME280;22232;50.914;13.858;2022-10-10T08:54:57;97943.66;;;14.27;81.69
36190;BME280;22232;50.914;13.858;2022-10-10T08:57:28;97948.41;;;14.41;80.60
36190;BME280;22232;50.914;13.858;2022-10-10T09:00:05;97943.34;;;14.67;86.31
36190;BME280;22232;50.914;13.858;2022-10-10T09:02:38;97947.88;;;14.66;84.65
36190;BME280;22232;50.914;13.858;2022-10-10T09:15:54;97938.97;;;14.39;88.60
36190;BME280;22232;50.914;13.858;2022-10-10T09:26:40;97938.63;;;14.52;87.08
36190;BME280;22232;50.914;13.858;2022-10-10T09:29:21;97922.41;;;14.69;86.77
36190;BME280;22232;50.914;13.858;2022-10-10T09:31:54;97931.09;;;14.81;86.93
36190;BME280;22232;50.914;13.858;2022-10-10T09:36:55;97929.06;;;14.94;84.71
36190;BME280;22232;50.914;13.858;2022-10-10T09:39:40;97927.97;;;14.89;81.95
36190;BME280;22232;50.914;13.858;2022-10-10T09:42:13;97926.31;;;14.83;82.73
36190;BME280;22232;50.914;13.858;2022-10-10T09:44:42;97927.13;;;14.57;84.49
36190;BME280;22232;50.914;13.858;2022-10-10T09:47:14;97929.34;;;14.92;86.14
36190;BME280;22232;50.914;13.858;2022-10-10T09:49:43;97932.38;;;15.01;85.36
36190;BME280;22232;50.914;13.858;2022-10-10T09:52:27;97937.56;;;15.12;84.83
36190;BME280;22232;50.914;13.858;2022-10-10T09:54:57;97934.94;;;14.90;88.74
36190;BME280;22232;50.914;13.858;2022-10-10T09:57:37;97938.56;;;14.74;84.34
36190;BME280;22232;50.914;13.858;2022-10-10T10:03:04;97936.59;;;14.91;88.73
36190;BME280;22232;50.914;13.858;2022-10-10T10:05:32;97942.56;;;14.99;90.19
36190;BME280;22232;50.914;13.858;2022-10-10T10:07:59;97939.59;;;14.68;87.48
36190;BME280;22232;50.914;13.858;2022-10-10T10:10:27;97936.09;;;14.95;86.23
36190;BME280;22232;50.914;13.858;2022-10-10T10:12:56;97940.75;;;14.77;89.84
36190;BME280;22232;50.914;13.858;2022-10-10T10:15:30;97948.56;;;15.11;92.08
36190;BME280;22232;50.914;13.858;2022-10-10T10:20:48;97944.44;;;15.68;85.94
36190;BME280;22232;50.914;13.858;2022-10-10T10:23:34;97945.06;;;15.90;78.95
36190;BME280;22232;50.914;13.858;2022-10-10T10:26:04;97946.00;;;16.16;80.91
36190;BME280;22232;50.914;13.858;2022-10-10T10:28:42;97944.00;;;15.91;78.71
36190;BME280;22232;50.914;13.858;2022-10-10T10:31:26;97939.97;;;15.51;79.67
36190;BME280;22232;50.914;13.858;2022-10-10T10:36:53;97939.69;;;15.90;81.69
36190;BME280;22232;50.914;13.858;2022-10-10T10:42:32;97936.41;;;15.78;83.88
36190;BME280;22232;50.914;13.858;2022-10-10T10:49:01;97931.44;;;16.12;84.61
36190;BME280;22232;50.914;13.858;2022-10-10T10:51:26;97912.69;;;16.43;82.50
36190;BME280;22232;50.914;13.858;2022-10-10T10:57:01;97912.06;;;16.05;85.52
36190;BME280;22232;50.914;13.858;2022-10-10T10:59:52;97911.88;;;16.32;83.33
36190;BME280;22232;50.914;13.858;2022-10-10T11:02:52;97905.22;;;16.65;78.68
36190;BME280;22232;50.914;13.858;2022-10-10T11:11:27;97898.53;;;16.99;76.92
36190;BME280;22232;50.914;13.858;2022-10-10T11:21:26;97883.38;;;16.67;80.04
36190;BME280;22232;50.914;13.858;2022-10-10T11:24:10;97881.56;;;16.93;81.08
36190;BME280;22232;50.914;13.858;2022-10-10T11:26:47;97883.19;;;16.84;79.82
36190;BME280;22232;50.914;13.858;2022-10-10T11:29:21;97881.53;;;16.98;80.94
36190;BME280;22232;50.914;13.858;2022-10-10T11:34:32;97882.59;;;16.71;81.19
36190;BME280;22232;50.914;13.858;2022-10-10T11:37:05;97870.75;;;16.72;81.53
36190;BME280;22232;50.914;13.858;2022-10-10T11:39:43;97873.41;;;16.52;81.60
36190;BME280;22232;50.914;13.858;2022-10-10T11:42:24;97878.25;;;16.35;85.33
36190;BME280;22232;50.914;13.858;2022-10-10T11:45:06;97867.47;;;16.45;85.33
36190;BME280;22232;50.914;13.858;2022-10-10T11:50:17;97863.50;;;17.09;82.63
36190;BME280;22232;50.914;13.858;2022-10-10T11:52:51;97865.94;;;17.10;80.51
36190;BME280;22232;50.914;13.858;2022-10-10T11:55:39;97873.41;;;17.34;78.45
36190;BME280;22232;50.914;13.858;2022-10-10T12:00:39;97864.56;;;17.03;78.17
36190;BME280;22232;50.914;13.858;2022-10-10T12:03:09;97867.78;;;16.54;75.36
36190;BME280;22232;50.914;13.858;2022-10-10T12:05:40;97868.03;;;16.47;79.40
36190;BME280;22232;50.914;13.858;2022-10-10T12:08:19;97873.16;;;16.43;82.11
36190;BME280;22232;50.914;13.858;2022-10-10T12:13:37;97867.50;;;16.65;82.79
36190;BME280;22232;50.914;13.858;2022-10-10T12:16:12;97867.50;;;16.60;85.13
36190;BME280;22232;50.914;13.858;2022-10-10T12:18:52;97866.94;;;16.43;83.11
36190;BME280;22232;50.914;13.858;2022-10-10T12:21:23;97862.63;;;16.32;86.18
36190;BME280;22232;50.914;13.858;2022-10-10T12:29:43;97857.28;;;16.83;80.91
36190;BME280;22232;50.914;13.858;2022-10-10T12:42:37;97860.16;;;16.15;86.46
36190;BME280;22232;50.914;13.858;2022-10-10T12:47:58;97848.50;;;15.83;90.95
36190;BME280;22232;50.914;13.858;2022-10-10T12:50:37;97852.84;;;15.95;93.74
36190;BME280;22232;50.914;13.858;2022-10-10T12:55:40;97855.53;;;15.95;88.54
36190;BME280;22232;50.914;13.858;2022-10-10T12:58:21;97846.81;;;15.72;91.96
36190;BME280;22232;50.914;13.858;2022-10-10T13:00:55;97845.59;;;15.95;91.82
36190;BME280;22232;50.914;13.858;2022-10-10T13:03:41;97854.69;;;15.94;93.10
36190;BME280;22232;50.914;13.858;2022-10-10T13:06:36;97844.41;;;15.76;95.49
36190;BME280;22232;50.914;13.858;2022-10-10T13:09:25;97836.88;;;15.68;95.07
36190;BME280;22232;50.914;13.858;2022-10-10T13:12:03;97853.28;;;15.71;99.96
36190;BME280;22232;50.914;13.858;2022-10-10T13:14:43;97846.72;;;15.57;96.48
36190;BME280;22232;50.914;13.858;2022-10-10T13:19:46;97859.31;;;15.46;98.39
36190;BME280;22232;50.914;13.858;2022-10-10T13:22:15;97864.72;;;15.51;95.84
36190;BME280;22232;50.914;13.858;2022-10-10T13:24:44;97860.13;;;15.47;93.69
36190;BME280;22232;50.914;13.858;2022-10-10T13:27:19;97862.59;;;15.53;96.73
36190;BME280;22232;50.914;13.858;2022-10-10T13:29:47;97865.50;;;15.47;95.42
36190;BME280;22232;50.914;13.858;2022-10-10T13:32:35;97857.94;;;15.38;96.71
36190;BME280;22232;50.914;13.858;2022-10-10T13:35:06;97852.56;;;15.38;96.12
36190;BME280;22232;50.914;13.858;2022-10-10T13:37:40;97861.38;;;15.29;98.22
36190;BME280;22232;50.914;13.858;2022-10-10T13:40:15;97858.16;;;15.32;98.52
36190;BME280;22232;50.914;13.858;2022-10-10T13:42:45;97863.78;;;15.25;99.59
36190;BME280;22232;50.914;13.858;2022-10-10T13:45:31;97850.66;;;15.34;99.51
36190;BME280;22232;50.914;13.858;2022-10-10T13:50:32;97848.22;;;15.32;98.60
36190;BME280;22232;50.914;13.858;2022-10-10T13:59:11;97855.72;;;15.30;97.58
36190;BME280;22232;50.914;13.858;2022-10-10T14:01:41;97858.22;;;15.37;99.58
36190;BME280;22232;50.914;13.858;2022-10-10T14:09:24;97841.31;;;15.47;100.00
36190;BME280;22232;50.914;13.858;2022-10-10T14:11:53;97842.16;;;15.57;100.00
36190;BME280;22232;50.914;13.858;2022-10-10T14:14:43;97843.13;;;15.36;100.00
36190;BME280;22232;50.914;13.858;2022-10-10T14:17:11;97851.56;;;15.55;100.00
36190;BME280;22232;50.914;13.858;2022-10-10T14:19:39;97845.66;;;15.58;100.00
36190;BME280;22232;50.914;13.858;2022-10-10T14:22:07;97848.63;;;15.56;100.00
36190;BME280;22232;50.914;13.858;2022-10-10T14:24:34;97833.31;;;15.62;100.00
36190;BME280;22232;50.914;13.858;2022-10-10T14:27:25;97840.25;;;15.48;99.39
36190;BME280;22232;50.914;13.858;2022-10-10T14:29:55;97841.31;;;15.47;100.00
36190;BME280;22232;50.914;13.858;2022-10-10T14:32:23;97841.25;;;15.36;100.00
36190;BME280;22232;50.914;13.858;2022-10-10T14:34:51;97839.97;;;15.44;100.00
36190;BME280;22232;50.914;13.858;2022-10-10T14:37:25;97834.22;;;15.30;100.00
36190;BME280;22232;50.914;13.858;2022-10-10T14:39:54;97838.25;;;15.28;100.00
36190;BME280;22232;50.914;13.858;2022-10-10T14:42:23;97840.63;;;15.24;100.00
36190;BME280;22232;50.914;13.858;2022-10-10T14:44:51;97836.53;;;15.06;100.00
36190;BME280;22232;50.914;13.858;2022-10-10T14:47:22;97830.63;;;15.09;100.00
36190;BME280;22232;50.914;13.858;2022-10-10T14:49:50;97832.47;;;15.04;100.00
36190;BME280;22232;50.914;13.858;2022-10-10T14:52:23;97823.34;;;15.05;100.00
36190;BME280;22232;50.914;13.858;2022-10-10T14:54:50;97819.25;;;14.97;100.00
36190;BME280;22232;50.914;13.858;2022-10-10T14:57:18;97830.31;;;15.06;100.00
36190;BME280;22232;50.914;13.858;2022-10-10T14:59:46;97831.16;;;15.06;100.00
36190;BME280;22232;50.914;13.858;2022-10-10T15:02:20;97829.22;;;15.02;100.00
36190;BME280;22232;50.914;13.858;2022-10-10T15:04:48;97817.91;;;14.95;100.00
36190;BME280;22232;50.914;13.858;2022-10-10T15:07:16;97825.06;;;14.84;100.00
36190;BME280;22232;50.914;13.858;2022-10-10T15:09:45;97827.13;;;14.72;100.00
36190;BME280;22232;50.914;13.858;2022-10-10T15:12:36;97831.34;;;14.62;100.00